sensor_id;sensor_type;location;lat;lon;timestamp;temperature;humidity
4809;DHT22;2418;49.930;8.606;2022-12-29T00:01:37;10.50;99.20
4809;DHT22;2418;49.930;8.606;2022-12-29T00:04:03;10.40;99.20
4809;DHT22;2418;49.930;8.606;2022-12-29T00:06:29;10.40;99.20
4809;DHT22;2418;49.930;8.606;2022-12-29T00:08:55;10.40;99.20
4809;DHT22;2418;49.930;8.606;2022-12-29T00:11:23;10.40;99.20
4809;DHT22;2418;49.930;8.606;2022-12-29T00:13:49;10.40;99.20
4809;DHT22;2418;49.930;8.606;2022-12-29T00:16:35;10.40;99.20
4809;DHT22;2418;49.930;8.606;2022-12-29T00:19:01;10.30;99.20
4809;DHT22;2418;49.930;8.606;2022-12-29T00:21:27;10.40;99.20
4809;DHT22;2418;49.930;8.606;2022-12-29T00:24:19;10.50;99.20
4809;DHT22;2418;49.930;8.606;2022-12-29T00:29:49;10.60;99.20
4809;DHT22;2418;49.930;8.606;2022-12-29T00:32:33;10.70;99.20
4809;DHT22;2418;49.930;8.606;2022-12-29T00:35:25;10.90;99.20
4809;DHT22;2418;49.930;8.606;2022-12-29T00:37:52;10.90;99.20
4809;DHT22;2418;49.930;8.606;2022-12-29T00:40:39;11.00;99.20
4809;DHT22;2418;49.930;8.606;2022-12-29T00:43:23;11.00;99.20
4809;DHT22;2418;49.930;8.606;2022-12-29T00:46:07;10.90;99.20
4809;DHT22;2418;49.930;8.606;2022-12-29T00:48:33;10.80;99.20
4809;DHT22;2418;49.930;8.606;2022-12-29T00:51:17;10.80;99.20
4809;DHT22;2418;49.930;8.606;2022-12-29T00:53:42;10.80;99.20
4809;DHT22;2418;49.930;8.606;2022-12-29T00:56:08;10.80;99.20
4809;DHT22;2418;49.930;8.606;2022-12-29T00:58:33;10.90;99.20
4809;DHT22;2418;49.930;8.606;2022-12-29T01:01:07;11.00;99.20
4809;DHT22;2418;49.930;8.606;2022-12-29T01:03:36;11.10;99.20
4809;DHT22;2418;49.930;8.606;2022-12-29T01:06:09;11.10;99.20
4809;DHT22;2418;49.930;8.606;2022-12-29T01:08:36;11.20;99.20
4809;DHT22;2418;49.930;8.606;2022-12-29T01:11:07;11.20;99.20
4809;DHT22;2418;49.930;8.606;2022-12-29T01:13:34;11.30;99.20
4809;DHT22;2418;49.930;8.606;2022-12-29T01:16:00;11.30;99.20
4809;DHT22;2418;49.930;8.606;2022-12-29T01:18:26;11.20;99.20
4809;DHT22;2418;49.930;8.606;2022-12-29T01:21:02;11.20;99.20
4809;DHT22;2418;49.930;8.606;2022-12-29T01:23:28;11.20;99.20
4809;DHT22;2418;49.930;8.606;2022-12-29T01:25:54;11.20;99.20
4809;DHT22;2418;49.930;8.606;2022-12-29T01:28:20;11.30;99.20
4809;DHT22;2418;49.930;8.606;2022-12-29T01:30:45;11.30;99.20
4809;DHT22;2418;49.930;8.606;2022-12-29T01:33:11;11.30;99.20
4809;DHT22;2418;49.930;8.606;2022-12-29T01:35:36;11.30;99.20
4809;DHT22;2418;49.930;8.606;2022-12-29T01:38:02;11.30;99.20
4809;DHT22;2418;49.930;8.606;2022-12-29T01:40:27;11.30;99.20
4809;DHT22;2418;49.930;8.606;2022-12-29T01:42:54;11.30;99.20
4809;DHT22;2418;49.930;8.606;2022-12-29T01:45:19;11.30;99.20
4809;DHT22;2418;49.930;8.606;2022-12-29T01:50:23;11.30;99.20
4809;DHT22;2418;49.930;8.606;2022-12-29T01:52:55;11.30;99.20
4809;DHT22;2418;49.930;8.606;2022-12-29T01:55:22;11.30;99.20
4809;DHT22;2418;49.930;8.606;2022-12-29T01:57:51;11.30;99.20
4809;DHT22;2418;49.930;8.606;2022-12-29T02:00:17;11.30;99.20
4809;DHT22;2418;49.930;8.606;2022-12-29T02:02:47;11.30;99.20
4809;DHT22;2418;49.930;8.606;2022-12-29T02:07:52;11.30;99.20
4809;DHT22;2418;49.930;8.606;2022-12-29T02:10:20;11.40;99.20
4809;DHT22;2418;49.930;8.606;2022-12-29T02:12:47;11.40;99.20
4809;DHT22;2418;49.930;8.606;2022-12-29T02:15:14;11.40;99.20
4809;DHT22;2418;49.930;8.606;2022-12-29T02:26:19;11.60;99.20
4809;DHT22;2418;49.930;8.606;2022-12-29T02:36:55;11.60;99.20
4809;DHT22;2418;49.930;8.606;2022-12-29T02:42:36;11.70;99.20
4809;DHT22;2418;49.930;8.606;2022-12-29T02:45:12;11.60;99.20
4809;DHT22;2418;49.930;8.606;2022-12-29T02:47:52;11.50;99.20
4809;DHT22;2418;49.930;8.606;2022-12-29T02:50:47;11.40;99.20
4809;DHT22;2418;49.930;8.606;2022-12-29T02:53:17;11.30;99.20
4809;DHT22;2418;49.930;8.606;2022-12-29T02:56:04;11.30;99.20
4809;DHT22;2418;49.930;8.606;2022-12-29T02:58:29;11.30;99.20
4809;DHT22;2418;49.930;8.606;2022-12-29T03:01:20;11.30;99.20
4809;DHT22;2418;49.930;8.606;2022-12-29T03:05:11;11.30;99.20
4809;DHT22;2418;49.930;8.606;2022-12-29T03:09:47;11.40;99.20
4809;DHT22;2418;49.930;8.606;2022-12-29T03:12:41;11.40;99.20
4809;DHT22;2418;49.930;8.606;2022-12-29T03:15:40;11.50;99.20
4809;DHT22;2418;49.930;8.606;2022-12-29T03:21:22;11.60;99.20
4809;DHT22;2418;49.930;8.606;2022-12-29T03:24:12;11.60;99.20
4809;DHT22;2418;49.930;8.606;2022-12-29T03:26:39;11.70;99.20
4809;DHT22;2418;49.930;8.606;2022-12-29T03:29:07;11.70;99.20
4809;DHT22;2418;49.930;8.606;2022-12-29T03:31:35;11.60;99.20
4809;DHT22;2418;49.930;8.606;2022-12-29T03:34:01;11.60;99.20
4809;DHT22;2418;49.930;8.606;2022-12-29T03:36:30;11.60;99.20
4809;DHT22;2418;49.930;8.606;2022-12-29T03:39:08;11.50;99.20
4809;DHT22;2418;49.930;8.606;2022-12-29T03:41:34;11.40;99.20
4809;DHT22;2418;49.930;8.606;2022-12-29T03:44:00;11.50;99.20
4809;DHT22;2418;49.930;8.606;2022-12-29T03:46:26;11.60;99.20
4809;DHT22;2418;49.930;8.606;2022-12-29T03:48:52;11.60;99.20
4809;DHT22;2418;49.930;8.606;2022-12-29T03:51:17;11.60;99.20
4809;DHT22;2418;49.930;8.606;2022-12-29T03:53:43;11.60;99.20
4809;DHT22;2418;49.930;8.606;2022-12-29T03:56:08;11.60;99.20
4809;DHT22;2418;49.930;8.606;2022-12-29T03:58:34;11.60;99.20
4809;DHT22;2418;49.930;8.606;2022-12-29T04:01:00;11.70;99.20
4809;DHT22;2418;49.930;8.606;2022-12-29T04:03:25;11.70;99.20
4809;DHT22;2418;49.930;8.606;2022-12-29T04:05:51;11.70;99.20
4809;DHT22;2418;49.930;8.606;2022-12-29T04:08:16;11.70;99.20
4809;DHT22;2418;49.930;8.606;2022-12-29T04:10:42;11.80;99.20
4809;DHT22;2418;49.930;8.606;2022-12-29T04:13:07;11.80;99.20
4809;DHT22;2418;49.930;8.606;2022-12-29T04:15:33;11.80;99.20
4809;DHT22;2418;49.930;8.606;2022-12-29T04:17:59;11.80;99.20
4809;DHT22;2418;49.930;8.606;2022-12-29T04:20:24;11.80;99.20
4809;DHT22;2418;49.930;8.606;2022-12-29T04:23:08;11.90;99.20
4809;DHT22;2418;49.930;8.606;2022-12-29T04:25:34;11.90;99.20
4809;DHT22;2418;49.930;8.606;2022-12-29T04:28:00;11.90;99.20
4809;DHT22;2418;49.930;8.606;2022-12-29T04:30:26;12.00;99.20
4809;DHT22;2418;49.930;8.606;2022-12-29T04:32:51;12.00;99.20
4809;DHT22;2418;49.930;8.606;2022-12-29T04:35:17;12.00;99.20
4809;DHT22;2418;49.930;8.606;2022-12-29T04:37:43;12.00;99.20
4809;DHT22;2418;49.930;8.606;2022-12-29T04:40:09;12.00;99.20
4809;DHT22;2418;49.930;8.606;2022-12-29T04:42:35;12.00;99.20
4809;DHT22;2418;49.930;8.606;2022-12-29T04:45:00;12.00;99.20
4809;DHT22;2418;49.930;8.606;2022-12-29T04:47:26;12.00;99.20
4809;DHT22;2418;49.930;8.606;2022-12-29T04:49:51;12.00;99.20
4809;DHT22;2418;49.930;8.606;2022-12-29T04:52:17;12.00;99.20
4809;DHT22;2418;49.930;8.606;2022-12-29T04:54:42;12.00;99.20
4809;DHT22;2418;49.930;8.606;2022-12-29T04:57:08;12.00;99.20
4809;DHT22;2418;49.930;8.606;2022-12-29T04:59:33;12.00;99.20
4809;DHT22;2418;49.930;8.606;2022-12-29T05:01:59;12.00;99.20
4809;DHT22;2418;49.930;8.606;2022-12-29T05:04:24;12.10;99.20
4809;DHT22;2418;49.930;8.606;2022-12-29T05:06:50;12.10;99.20
4809;DHT22;2418;49.930;8.606;2022-12-29T05:09:15;12.10;99.20
4809;DHT22;2418;49.930;8.606;2022-12-29T05:11:41;12.10;99.20
4809;DHT22;2418;49.930;8.606;2022-12-29T05:14:07;12.10;99.20
4809;DHT22;2418;49.930;8.606;2022-12-29T05:16:32;12.10;99.20
4809;DHT22;2418;49.930;8.606;2022-12-29T05:18:58;12.10;99.20
4809;DHT22;2418;49.930;8.606;2022-12-29T05:21:23;12.10;99.20
4809;DHT22;2418;49.930;8.606;2022-12-29T05:23:49;12.10;99.20
4809;DHT22;2418;49.930;8.606;2022-12-29T05:26:15;12.20;99.20
4809;DHT22;2418;49.930;8.606;2022-12-29T05:28:40;12.20;99.20
4809;DHT22;2418;49.930;8.606;2022-12-29T05:31:05;12.20;99.20
4809;DHT22;2418;49.930;8.606;2022-12-29T05:33:31;12.20;99.20
4809;DHT22;2418;49.930;8.606;2022-12-29T05:35:57;12.20;99.20
4809;DHT22;2418;49.930;8.606;2022-12-29T05:38:22;12.20;99.20
4809;DHT22;2418;49.930;8.606;2022-12-29T05:40:48;12.20;99.20
4809;DHT22;2418;49.930;8.606;2022-12-29T05:43:13;12.20;99.20
4809;DHT22;2418;49.930;8.606;2022-12-29T05:45:39;12.10;99.20
4809;DHT22;2418;49.930;8.606;2022-12-29T05:48:05;12.10;99.20
4809;DHT22;2418;49.930;8.606;2022-12-29T05:50:30;12.10;99.20
4809;DHT22;2418;49.930;8.606;2022-12-29T05:52:56;12.10;99.20
4809;DHT22;2418;49.930;8.606;2022-12-29T05:55:21;12.00;99.20
4809;DHT22;2418;49.930;8.606;2022-12-29T05:57:47;12.10;99.20
4809;DHT22;2418;49.930;8.606;2022-12-29T06:00:13;12.10;99.20
4809;DHT22;2418;49.930;8.606;2022-12-29T06:02:39;12.00;99.20
4809;DHT22;2418;49.930;8.606;2022-12-29T06:05:05;12.10;99.20
4809;DHT22;2418;49.930;8.606;2022-12-29T06:07:31;12.10;99.20
4809;DHT22;2418;49.930;8.606;2022-12-29T06:09:56;12.10;99.20
4809;DHT22;2418;49.930;8.606;2022-12-29T06:12:21;12.10;99.20
4809;DHT22;2418;49.930;8.606;2022-12-29T06:14:47;12.20;99.20
4809;DHT22;2418;49.930;8.606;2022-12-29T06:17:13;12.20;99.20
4809;DHT22;2418;49.930;8.606;2022-12-29T06:19:38;12.30;99.20
4809;DHT22;2418;49.930;8.606;2022-12-29T06:22:04;12.40;99.20
4809;DHT22;2418;49.930;8.606;2022-12-29T06:24:30;12.40;99.20
4809;DHT22;2418;49.930;8.606;2022-12-29T06:26:56;12.40;99.20
4809;DHT22;2418;49.930;8.606;2022-12-29T06:29:21;12.40;99.20
4809;DHT22;2418;49.930;8.606;2022-12-29T06:31:47;12.50;99.20
4809;DHT22;2418;49.930;8.606;2022-12-29T06:34:14;12.50;99.20
4809;DHT22;2418;49.930;8.606;2022-12-29T06:36:39;12.50;99.20
4809;DHT22;2418;49.930;8.606;2022-12-29T06:39:05;12.60;99.20
4809;DHT22;2418;49.930;8.606;2022-12-29T06:41:31;12.50;99.20
4809;DHT22;2418;49.930;8.606;2022-12-29T06:43:56;12.50;99.20
4809;DHT22;2418;49.930;8.606;2022-12-29T06:46:22;12.50;99.20
4809;DHT22;2418;49.930;8.606;2022-12-29T06:48:48;12.50;99.20
4809;DHT22;2418;49.930;8.606;2022-12-29T06:51:13;12.40;99.20
4809;DHT22;2418;49.930;8.606;2022-12-29T06:53:39;12.40;99.20
4809;DHT22;2418;49.930;8.606;2022-12-29T06:56:04;12.40;99.20
4809;DHT22;2418;49.930;8.606;2022-12-29T06:58:30;12.40;99.20
4809;DHT22;2418;49.930;8.606;2022-12-29T07:00:56;12.40;99.20
4809;DHT22;2418;49.930;8.606;2022-12-29T07:03:21;12.40;99.20
4809;DHT22;2418;49.930;8.606;2022-12-29T07:05:47;12.40;99.20
4809;DHT22;2418;49.930;8.606;2022-12-29T07:08:13;12.40;99.20
4809;DHT22;2418;49.930;8.606;2022-12-29T07:10:39;12.30;99.20
4809;DHT22;2418;49.930;8.606;2022-12-29T07:13:04;12.30;99.20
4809;DHT22;2418;49.930;8.606;2022-12-29T07:15:30;12.30;99.20
4809;DHT22;2418;49.930;8.606;2022-12-29T07:17:55;12.40;99.20
4809;DHT22;2418;49.930;8.606;2022-12-29T07:20:21;12.40;99.20
4809;DHT22;2418;49.930;8.606;2022-12-29T07:22:46;12.40;99.20
4809;DHT22;2418;49.930;8.606;2022-12-29T07:25:12;12.40;99.20
4809;DHT22;2418;49.930;8.606;2022-12-29T07:27:38;12.40;99.20
4809;DHT22;2418;49.930;8.606;2022-12-29T07:30:04;12.40;99.20
4809;DHT22;2418;49.930;8.606;2022-12-29T07:32:32;12.40;99.20
4809;DHT22;2418;49.930;8.606;2022-12-29T07:34:59;12.50;99.20
4809;DHT22;2418;49.930;8.606;2022-12-29T07:37:24;12.50;99.20
4809;DHT22;2418;49.930;8.606;2022-12-29T07:39:50;12.60;99.20
4809;DHT22;2418;49.930;8.606;2022-12-29T07:42:15;12.60;99.20
4809;DHT22;2418;49.930;8.606;2022-12-29T07:44:41;12.60;99.20
4809;DHT22;2418;49.930;8.606;2022-12-29T07:47:06;12.70;99.20
4809;DHT22;2418;49.930;8.606;2022-12-29T07:49:32;12.70;99.20
4809;DHT22;2418;49.930;8.606;2022-12-29T07:51:57;12.60;99.20
4809;DHT22;2418;49.930;8.606;2022-12-29T07:54:23;12.70;99.20
4809;DHT22;2418;49.930;8.606;2022-12-29T07:56:49;12.60;99.20
4809;DHT22;2418;49.930;8.606;2022-12-29T07:59:14;12.70;99.20
4809;DHT22;2418;49.930;8.606;2022-12-29T08:01:40;12.70;99.20
4809;DHT22;2418;49.930;8.606;2022-12-29T08:04:05;12.70;99.20
4809;DHT22;2418;49.930;8.606;2022-12-29T08:06:31;12.80;99.20
4809;DHT22;2418;49.930;8.606;2022-12-29T08:08:57;12.80;99.20
4809;DHT22;2418;49.930;8.606;2022-12-29T08:11:23;12.90;99.20
4809;DHT22;2418;49.930;8.606;2022-12-29T08:13:50;12.90;99.20
4809;DHT22;2418;49.930;8.606;2022-12-29T08:16:15;12.90;99.20
4809;DHT22;2418;49.930;8.606;2022-12-29T08:18:41;12.90;99.20
4809;DHT22;2418;49.930;8.606;2022-12-29T08:21:07;12.90;99.20
4809;DHT22;2418;49.930;8.606;2022-12-29T08:23:32;12.90;99.20
4809;DHT22;2418;49.930;8.606;2022-12-29T08:26:03;12.90;99.20
4809;DHT22;2418;49.930;8.606;2022-12-29T08:28:30;12.90;99.20
4809;DHT22;2418;49.930;8.606;2022-12-29T08:31:00;13.00;99.20
4809;DHT22;2418;49.930;8.606;2022-12-29T08:33:27;13.00;99.20
4809;DHT22;2418;49.930;8.606;2022-12-29T08:35:52;13.00;99.20
4809;DHT22;2418;49.930;8.606;2022-12-29T08:38:18;13.00;99.20
4809;DHT22;2418;49.930;8.606;2022-12-29T08:40:44;13.00;99.20
4809;DHT22;2418;49.930;8.606;2022-12-29T08:43:09;12.90;99.20
4809;DHT22;2418;49.930;8.606;2022-12-29T08:45:35;12.90;99.20
4809;DHT22;2418;49.930;8.606;2022-12-29T08:48:00;12.90;99.20
4809;DHT22;2418;49.930;8.606;2022-12-29T08:50:35;13.00;99.20
4809;DHT22;2418;49.930;8.606;2022-12-29T08:53:04;13.00;99.20
4809;DHT22;2418;49.930;8.606;2022-12-29T08:55:29;13.10;99.20
4809;DHT22;2418;49.930;8.606;2022-12-29T08:57:55;13.10;99.20
4809;DHT22;2418;49.930;8.606;2022-12-29T09:00:20;13.00;99.20
4809;DHT22;2418;49.930;8.606;2022-12-29T09:02:47;13.00;99.20
4809;DHT22;2418;49.930;8.606;2022-12-29T09:05:12;13.00;99.20
4809;DHT22;2418;49.930;8.606;2022-12-29T09:07:38;13.00;99.20
4809;DHT22;2418;49.930;8.606;2022-12-29T09:10:04;13.10;99.20
4809;DHT22;2418;49.930;8.606;2022-12-29T09:12:29;13.00;99.20
4809;DHT22;2418;49.930;8.606;2022-12-29T09:14:55;13.00;99.20
4809;DHT22;2418;49.930;8.606;2022-12-29T09:17:20;13.10;99.20
4809;DHT22;2418;49.930;8.606;2022-12-29T09:20:05;13.10;99.20
4809;DHT22;2418;49.930;8.606;2022-12-29T09:22:30;13.10;99.20
4809;DHT22;2418;49.930;8.606;2022-12-29T09:24:56;13.10;99.20
4809;DHT22;2418;49.930;8.606;2022-12-29T09:27:21;13.10;99.20
4809;DHT22;2418;49.930;8.606;2022-12-29T09:29:47;13.10;99.20
4809;DHT22;2418;49.930;8.606;2022-12-29T09:32:13;13.10;99.20
4809;DHT22;2418;49.930;8.606;2022-12-29T09:34:38;13.20;99.20
4809;DHT22;2418;49.930;8.606;2022-12-29T09:37:04;13.10;99.20
4809;DHT22;2418;49.930;8.606;2022-12-29T09:39:29;13.10;99.20
4809;DHT22;2418;49.930;8.606;2022-12-29T09:42:05;13.20;99.20
4809;DHT22;2418;49.930;8.606;2022-12-29T09:45:01;13.20;99.20
4809;DHT22;2418;49.930;8.606;2022-12-29T09:47:29;13.20;99.20
4809;DHT22;2418;49.930;8.606;2022-12-29T09:50:28;13.20;99.20
4809;DHT22;2418;49.930;8.606;2022-12-29T09:53:00;13.20;99.20
4809;DHT22;2418;49.930;8.606;2022-12-29T09:55:50;13.20;99.20
4809;DHT22;2418;49.930;8.606;2022-12-29T09:58:34;13.10;99.20
4809;DHT22;2418;49.930;8.606;2022-12-29T10:01:05;13.00;99.20
4809;DHT22;2418;49.930;8.606;2022-12-29T10:03:50;12.90;99.20
4809;DHT22;2418;49.930;8.606;2022-12-29T10:06:21;12.90;99.20
4809;DHT22;2418;49.930;8.606;2022-12-29T10:08:49;12.90;99.20
4809;DHT22;2418;49.930;8.606;2022-12-29T10:14:58;12.80;99.20
4809;DHT22;2418;49.930;8.606;2022-12-29T10:17:48;12.80;99.20
4809;DHT22;2418;49.930;8.606;2022-12-29T10:25:38;11.00;99.20
4809;DHT22;2418;49.930;8.606;2022-12-29T10:28:10;10.60;99.20
4809;DHT22;2418;49.930;8.606;2022-12-29T10:30:40;10.40;99.20
4809;DHT22;2418;49.930;8.606;2022-12-29T10:33:08;10.30;99.20
4809;DHT22;2418;49.930;8.606;2022-12-29T10:35:39;10.20;99.20
4809;DHT22;2418;49.930;8.606;2022-12-29T10:38:23;10.20;99.20
4809;DHT22;2418;49.930;8.606;2022-12-29T10:40:58;10.10;99.20
4809;DHT22;2418;49.930;8.606;2022-12-29T10:43:28;10.10;99.20
4809;DHT22;2418;49.930;8.606;2022-12-29T10:45:57;10.10;99.20
4809;DHT22;2418;49.930;8.606;2022-12-29T10:48:27;10.20;99.20
4809;DHT22;2418;49.930;8.606;2022-12-29T10:50:56;10.30;99.20
4809;DHT22;2418;49.930;8.606;2022-12-29T10:53:27;10.30;99.20
4809;DHT22;2418;49.930;8.606;2022-12-29T10:55:56;10.40;99.20
4809;DHT22;2418;49.930;8.606;2022-12-29T10:58:24;10.50;99.20
4809;DHT22;2418;49.930;8.606;2022-12-29T11:00:52;10.60;99.20
4809;DHT22;2418;49.930;8.606;2022-12-29T11:03:33;10.70;99.20
4809;DHT22;2418;49.930;8.606;2022-12-29T11:06:08;10.80;99.20
4809;DHT22;2418;49.930;8.606;2022-12-29T11:08:38;11.00;99.20
4809;DHT22;2418;49.930;8.606;2022-12-29T11:11:08;11.20;99.20
4809;DHT22;2418;49.930;8.606;2022-12-29T11:13:47;11.30;99.20
4809;DHT22;2418;49.930;8.606;2022-12-29T11:16:13;11.50;99.20
4809;DHT22;2418;49.930;8.606;2022-12-29T11:18:40;11.60;99.20
4809;DHT22;2418;49.930;8.606;2022-12-29T11:21:31;11.60;99.20
4809;DHT22;2418;49.930;8.606;2022-12-29T11:26:23;11.60;99.20
4809;DHT22;2418;49.930;8.606;2022-12-29T11:31:45;11.60;99.20
4809;DHT22;2418;49.930;8.606;2022-12-29T11:34:24;11.60;99.20
4809;DHT22;2418;49.930;8.606;2022-12-29T11:36:53;11.70;99.20
4809;DHT22;2418;49.930;8.606;2022-12-29T11:42:16;11.80;99.20
4809;DHT22;2418;49.930;8.606;2022-12-29T11:44:45;11.80;99.20
4809;DHT22;2418;49.930;8.606;2022-12-29T11:47:25;11.90;99.20
4809;DHT22;2418;49.930;8.606;2022-12-29T11:49:54;11.90;99.20
4809;DHT22;2418;49.930;8.606;2022-12-29T11:52:25;12.00;99.20
4809;DHT22;2418;49.930;8.606;2022-12-29T11:54:52;12.10;99.20
4809;DHT22;2418;49.930;8.606;2022-12-29T11:57:19;12.00;99.20
4809;DHT22;2418;49.930;8.606;2022-12-29T11:59:53;12.00;99.20
4809;DHT22;2418;49.930;8.606;2022-12-29T12:04:59;12.00;99.20
4809;DHT22;2418;49.930;8.606;2022-12-29T12:07:42;11.90;99.20
4809;DHT22;2418;49.930;8.606;2022-12-29T12:10:19;11.90;99.20
4809;DHT22;2418;49.930;8.606;2022-12-29T12:12:47;11.90;99.20
4809;DHT22;2418;49.930;8.606;2022-12-29T12:15:28;11.90;99.20
4809;DHT22;2418;49.930;8.606;2022-12-29T12:18:30;11.90;99.20
4809;DHT22;2418;49.930;8.606;2022-12-29T12:20:58;11.80;99.20
4809;DHT22;2418;49.930;8.606;2022-12-29T12:26:21;11.70;99.20
4809;DHT22;2418;49.930;8.606;2022-12-29T12:28:54;11.70;99.20
4809;DHT22;2418;49.930;8.606;2022-12-29T12:31:44;11.70;99.20
4809;DHT22;2418;49.930;8.606;2022-12-29T12:34:22;11.70;99.20
4809;DHT22;2418;49.930;8.606;2022-12-29T12:39:47;11.70;99.20
4809;DHT22;2418;49.930;8.606;2022-12-29T12:42:32;11.80;99.20
4809;DHT22;2418;49.930;8.606;2022-12-29T12:45:11;11.90;99.20
4809;DHT22;2418;49.930;8.606;2022-12-29T12:47:59;11.90;99.20
4809;DHT22;2418;49.930;8.606;2022-12-29T12:56:52;11.80;99.20
4809;DHT22;2418;49.930;8.606;2022-12-29T12:59:36;11.80;99.20
4809;DHT22;2418;49.930;8.606;2022-12-29T13:08:06;11.80;99.20
4809;DHT22;2418;49.930;8.606;2022-12-29T13:14:03;11.90;99.20
4809;DHT22;2418;49.930;8.606;2022-12-29T13:19:30;12.10;99.20
4809;DHT22;2418;49.930;8.606;2022-12-29T13:22:19;12.20;99.20
4809;DHT22;2418;49.930;8.606;2022-12-29T13:27:44;12.20;99.20
4809;DHT22;2418;49.930;8.606;2022-12-29T13:30:21;12.30;99.20
4809;DHT22;2418;49.930;8.606;2022-12-29T13:35:56;12.20;99.20
4809;DHT22;2418;49.930;8.606;2022-12-29T13:38:51;12.20;99.20
4809;DHT22;2418;49.930;8.606;2022-12-29T13:41:34;12.20;99.20
4809;DHT22;2418;49.930;8.606;2022-12-29T13:44:04;12.20;99.20
4809;DHT22;2418;49.930;8.606;2022-12-29T13:46:38;12.20;99.20
4809;DHT22;2418;49.930;8.606;2022-12-29T13:49:12;12.10;99.20
4809;DHT22;2418;49.930;8.606;2022-12-29T13:51:43;12.10;99.20
4809;DHT22;2418;49.930;8.606;2022-12-29T13:57:06;12.10;99.20
4809;DHT22;2418;49.930;8.606;2022-12-29T13:59:36;12.20;99.20
4809;DHT22;2418;49.930;8.606;2022-12-29T14:02:37;12.10;99.20
4809;DHT22;2418;49.930;8.606;2022-12-29T14:07:56;12.20;99.20
4809;DHT22;2418;49.930;8.606;2022-12-29T14:10:45;12.20;99.20
4809;DHT22;2418;49.930;8.606;2022-12-29T14:13:15;12.20;99.20
4809;DHT22;2418;49.930;8.606;2022-12-29T14:15:55;12.20;99.20
4809;DHT22;2418;49.930;8.606;2022-12-29T14:18:29;12.10;99.20
4809;DHT22;2418;49.930;8.606;2022-12-29T14:20:59;12.00;99.20
4809;DHT22;2418;49.930;8.606;2022-12-29T14:23:43;12.00;99.20
4809;DHT22;2418;49.930;8.606;2022-12-29T14:28:54;12.00;99.20
4809;DHT22;2418;49.930;8.606;2022-12-29T14:37:01;12.10;99.20
4809;DHT22;2418;49.930;8.606;2022-12-29T14:42:16;12.00;99.20
4809;DHT22;2418;49.930;8.606;2022-12-29T14:44:52;12.00;99.20
4809;DHT22;2418;49.930;8.606;2022-12-29T14:47:22;11.80;99.20
4809;DHT22;2418;49.930;8.606;2022-12-29T14:49:51;11.80;99.20
4809;DHT22;2418;49.930;8.606;2022-12-29T14:52:23;11.70;99.20
4809;DHT22;2418;49.930;8.606;2022-12-29T14:54:54;11.70;99.20
4809;DHT22;2418;49.930;8.606;2022-12-29T14:57:33;11.80;99.20
4809;DHT22;2418;49.930;8.606;2022-12-29T15:02:54;11.80;99.20
4809;DHT22;2418;49.930;8.606;2022-12-29T15:07:58;11.70;99.20
4809;DHT22;2418;49.930;8.606;2022-12-29T15:10:27;11.60;99.20
4809;DHT22;2418;49.930;8.606;2022-12-29T15:13:04;11.50;99.20
4809;DHT22;2418;49.930;8.606;2022-12-29T15:15:37;11.40;99.20
4809;DHT22;2418;49.930;8.606;2022-12-29T15:18:23;11.30;99.20
4809;DHT22;2418;49.930;8.606;2022-12-29T15:20:52;11.10;99.20
4809;DHT22;2418;49.930;8.606;2022-12-29T15:23:19;11.10;99.20
4809;DHT22;2418;49.930;8.606;2022-12-29T15:26:05;11.00;99.20
4809;DHT22;2418;49.930;8.606;2022-12-29T15:28:45;11.00;99.20
4809;DHT22;2418;49.930;8.606;2022-12-29T15:31:21;11.00;99.20
4809;DHT22;2418;49.930;8.606;2022-12-29T15:33:52;10.90;99.20
4809;DHT22;2418;49.930;8.606;2022-12-29T15:36:26;10.80;99.20
4809;DHT22;2418;49.930;8.606;2022-12-29T15:38:52;10.80;99.20
4809;DHT22;2418;49.930;8.606;2022-12-29T15:46:11;10.70;99.20
4809;DHT22;2418;49.930;8.606;2022-12-29T15:48:38;10.70;99.20
4809;DHT22;2418;49.930;8.606;2022-12-29T15:51:22;10.70;99.20
4809;DHT22;2418;49.930;8.606;2022-12-29T15:53:51;10.60;99.20
4809;DHT22;2418;49.930;8.606;2022-12-29T15:56:17;10.60;99.20
4809;DHT22;2418;49.930;8.606;2022-12-29T15:58:46;10.60;99.20
4809;DHT22;2418;49.930;8.606;2022-12-29T16:01:30;10.50;99.20
4809;DHT22;2418;49.930;8.606;2022-12-29T16:03:58;10.50;99.20
4809;DHT22;2418;49.930;8.606;2022-12-29T16:06:32;10.40;99.20
4809;DHT22;2418;49.930;8.606;2022-12-29T16:09:10;10.30;99.20
4809;DHT22;2418;49.930;8.606;2022-12-29T16:11:46;10.20;99.20
4809;DHT22;2418;49.930;8.606;2022-12-29T16:14:19;10.20;99.20
4809;DHT22;2418;49.930;8.606;2022-12-29T16:16:47;10.00;99.20
4809;DHT22;2418;49.930;8.606;2022-12-29T16:19:24;9.90;99.20
4809;DHT22;2418;49.930;8.606;2022-12-29T16:21:52;9.90;99.20
4809;DHT22;2418;49.930;8.606;2022-12-29T16:24:20;9.80;99.20
4809;DHT22;2418;49.930;8.606;2022-12-29T16:26:53;9.80;99.20
4809;DHT22;2418;49.930;8.606;2022-12-29T16:29:20;9.80;99.20
4809;DHT22;2418;49.930;8.606;2022-12-29T16:31:55;9.70;99.20
4809;DHT22;2418;49.930;8.606;2022-12-29T16:34:27;9.60;99.20
4809;DHT22;2418;49.930;8.606;2022-12-29T16:37:02;9.70;99.20
4809;DHT22;2418;49.930;8.606;2022-12-29T16:39:38;9.60;99.20
4809;DHT22;2418;49.930;8.606;2022-12-29T16:42:33;9.60;99.20
4809;DHT22;2418;49.930;8.606;2022-12-29T16:46:27;9.50;99.20
4809;DHT22;2418;49.930;8.606;2022-12-29T16:48:33;9.50;99.20
4809;DHT22;2418;49.930;8.606;2022-12-29T16:51:02;9.40;99.20
4809;DHT22;2418;49.930;8.606;2022-12-29T16:53:38;9.30;99.20
4809;DHT22;2418;49.930;8.606;2022-12-29T16:56:14;9.30;99.20
4809;DHT22;2418;49.930;8.606;2022-12-29T16:58:41;9.20;99.20
4809;DHT22;2418;49.930;8.606;2022-12-29T17:01:07;9.20;99.20
4809;DHT22;2418;49.930;8.606;2022-12-29T17:03:43;9.20;99.20
4809;DHT22;2418;49.930;8.606;2022-12-29T17:06:15;9.30;99.20
4809;DHT22;2418;49.930;8.606;2022-12-29T17:08:42;9.30;99.20
4809;DHT22;2418;49.930;8.606;2022-12-29T17:11:30;9.30;99.20
4809;DHT22;2418;49.930;8.606;2022-12-29T17:14:56;9.20;99.20
4809;DHT22;2418;49.930;8.606;2022-12-29T17:17:35;9.20;99.20
4809;DHT22;2418;49.930;8.606;2022-12-29T17:22:41;9.00;99.20
4809;DHT22;2418;49.930;8.606;2022-12-29T17:25:11;9.00;99.20
4809;DHT22;2418;49.930;8.606;2022-12-29T17:27:41;9.00;99.20
4809;DHT22;2418;49.930;8.606;2022-12-29T17:30:16;9.00;99.20
4809;DHT22;2418;49.930;8.606;2022-12-29T17:32:45;9.00;99.20
4809;DHT22;2418;49.930;8.606;2022-12-29T17:35:16;9.00;99.20
4809;DHT22;2418;49.930;8.606;2022-12-29T17:37:42;9.00;99.20
4809;DHT22;2418;49.930;8.606;2022-12-29T17:40:14;9.00;99.20
4809;DHT22;2418;49.930;8.606;2022-12-29T17:42:45;9.00;99.20
4809;DHT22;2418;49.930;8.606;2022-12-29T17:45:17;9.00;99.20
4809;DHT22;2418;49.930;8.606;2022-12-29T17:47:44;9.00;99.20
4809;DHT22;2418;49.930;8.606;2022-12-29T17:50:23;9.00;99.20
4809;DHT22;2418;49.930;8.606;2022-12-29T17:53:03;9.00;99.20
4809;DHT22;2418;49.930;8.606;2022-12-29T17:55:30;9.00;99.20
4809;DHT22;2418;49.930;8.606;2022-12-29T17:57:56;9.00;99.20
4809;DHT22;2418;49.930;8.606;2022-12-29T18:00:27;9.00;99.20
4809;DHT22;2418;49.930;8.606;2022-12-29T18:02:53;9.00;99.20
4809;DHT22;2418;49.930;8.606;2022-12-29T18:05:21;8.90;99.20
4809;DHT22;2418;49.930;8.606;2022-12-29T18:07:48;9.00;99.20
4809;DHT22;2418;49.930;8.606;2022-12-29T18:10:16;9.00;99.20
4809;DHT22;2418;49.930;8.606;2022-12-29T18:12:44;9.00;99.20
4809;DHT22;2418;49.930;8.606;2022-12-29T18:17:45;9.10;99.20
4809;DHT22;2418;49.930;8.606;2022-12-29T18:20:11;9.10;99.20
4809;DHT22;2418;49.930;8.606;2022-12-29T18:22:36;9.10;99.20
4809;DHT22;2418;49.930;8.606;2022-12-29T18:25:09;9.10;99.20